Time;durP1;ratioP1;P1;durP2;ratioP2;P2;SDS_P1;SDS_P2;PMS_P1;PMS_P2;Temp;Humidity;BMP_temperature;BMP_pressure;BME280_temperature;BME280_humidity;BME280_pressure;Samples;Min_cycle;Max_cycle;Signal;HPM_P1;HPM_P2
2022/10/06 00:00:23;;;;;;;16.70;10.70;;;;;;;8.03;98.10;99466.50;2271607;78;21386;-80
2022/10/06 00:03:23;;;;;;;15.83;10.73;;;;;;;8.07;97.81;99466.64;2271931;78;20959;-80
2022/10/06 00:06:23;;;;;;;20.17;11.23;;;;;;;8.04;97.33;99476.06;2273574;78;20967;-81
2022/10/06 00:09:24;;;;;;;15.23;10.37;;;;;;;7.96;97.09;99476.70;2273548;78;20936;-81
2022/10/06 00:12:24;;;;;;;31.27;11.10;;;;;;;7.96;97.39;99475.40;2272888;78;20920;-81
2022/10/06 00:15:25;;;;;;;25.53;10.40;;;;;;;7.94;97.02;99477.48;2273617;78;20884;-81
2022/10/06 00:18:25;;;;;;;22.23;10.30;;;;;;;7.91;96.88;99479.98;2273295;78;20963;-82
2022/10/06 00:21:25;;;;;;;15.90;10.57;;;;;;;7.87;96.81;99479.42;2273210;78;20931;-81
2022/10/06 00:24:26;;;;;;;23.80;11.20;;;;;;;7.85;97.08;99475.89;2273582;78;20963;-81
2022/10/06 00:27:26;;;;;;;14.40;9.97;;;;;;;7.87;97.65;99478.12;2272904;78;20987;-80
2022/10/06 00:30:27;;;;;;;18.27;9.27;;;;;;;7.95;98.49;99485.75;2273252;78;21327;-81
2022/10/06 00:33:27;;;;;;;20.47;10.60;;;;;;;8.03;98.68;99484.28;2273244;78;20892;-81
2022/10/06 00:36:27;;;;;;;16.07;10.27;;;;;;;8.12;98.75;99480.67;2273547;78;20919;-81
2022/10/06 00:39:28;;;;;;;32.97;10.20;;;;;;;8.22;99.12;99480.13;2273261;78;20955;-81
2022/10/06 00:42:28;;;;;;;17.00;9.10;;;;;;;8.26;98.90;99475.89;2273348;78;21191;-82
2022/10/06 00:45:29;;;;;;;24.93;8.80;;;;;;;8.38;99.30;99478.02;2273559;78;20982;-82
2022/10/06 00:48:29;;;;;;;17.87;8.50;;;;;;;8.47;98.91;99479.61;2273643;78;20920;-81
2022/10/06 00:51:30;;;;;;;22.90;9.93;;;;;;;8.52;98.88;99477.61;2273839;78;20908;-81
2022/10/06 00:54:30;;;;;;;30.17;8.70;;;;;;;8.59;98.59;99478.67;2273764;78;21286;-80
2022/10/06 00:57:30;;;;;;;18.67;8.43;;;;;;;8.71;98.92;99478.18;2273168;78;21007;-83
2022/10/06 01:00:31;;;;;;;23.57;8.73;;;;;;;8.78;99.02;99477.10;2273736;78;20892;-84
2022/10/06 01:03:31;;;;;;;16.93;7.23;;;;;;;8.84;98.67;99473.38;2273561;78;21279;-83
2022/10/06 01:06:32;;;;;;;16.67;7.00;;;;;;;8.94;98.90;99474.09;2273542;78;20932;-83
2022/10/06 01:09:32;;;;;;;13.17;7.33;;;;;;;9.06;99.02;99480.48;2273572;78;20900;-83
2022/10/06 01:12:32;;;;;;;11.57;7.53;;;;;;;9.18;99.16;99474.31;2273881;78;20970;-83
2022/10/06 01:15:33;;;;;;;8.40;4.80;;;;;;;9.29;98.78;99470.69;2273622;78;21275;-80
2022/10/06 01:18:33;;;;;;;7.63;6.20;;;;;;;9.63;100.00;99469.88;2273795;78;20959;-82
2022/10/06 01:21:33;;;;;;;12.10;6.90;;;;;;;10.43;100.00;99465.36;2273994;78;20931;-84
2022/10/06 01:24:34;;;;;;;11.00;7.03;;;;;;;10.28;97.42;99464.09;2273634;78;21330;-81
2022/10/06 01:27:34;;;;;;;11.80;6.50;;;;;;;10.11;96.45;99464.55;2273254;78;21029;-83
2022/10/06 01:30:35;;;;;;;10.33;6.67;;;;;;;9.99;95.97;99468.18;2273747;78;20923;-84
2022/10/06 01:33:35;;;;;;;9.17;6.47;;;;;;;9.87;95.89;99467.89;2273691;78;21310;-84
2022/10/06 01:36:36;;;;;;;51.23;8.70;;;;;;;9.80;95.65;99468.58;2273489;78;21331;-82
2022/10/06 01:39:36;;;;;;;13.63;5.70;;;;;;;9.73;95.86;99466.66;2273554;78;20956;-83
2022/10/06 01:42:36;;;;;;;10.83;5.30;;;;;;;9.70;96.46;99461.38;2273381;78;20924;-81
2022/10/06 01:45:37;;;;;;;7.87;5.57;;;;;;;9.68;96.37;99457.84;2273649;78;20955;-83
2022/10/06 01:48:37;;;;;;;14.03;5.40;;;;;;;9.71;96.59;99463.14;2273515;78;20937;-82
2022/10/06 01:51:38;;;;;;;25.47;5.53;;;;;;;9.70;96.56;99463.55;2273637;78;20932;-81
2022/10/06 01:54:38;;;;;;;12.90;5.90;;;;;;;9.74;97.05;99454.97;2273623;78;20975;-82
2022/10/06 01:57:39;;;;;;;69.43;8.60;;;;;;;9.78;97.04;99459.41;2273341;78;21011;-82
2022/10/06 02:00:39;;;;;;;18.43;6.67;;;;;;;9.83;97.06;99455.62;2273280;78;21388;-81
2022/10/06 02:03:39;;;;;;;11.87;6.40;;;;;;;9.85;96.90;99447.41;2273571;78;20991;-82
2022/10/06 02:06:40;;;;;;;80.23;9.73;;;;;;;9.87;96.85;99450.94;2273895;78;20931;-82
2022/10/06 02:09:40;;;;;;;19.83;6.07;;;;;;;9.88;96.84;99454.00;2273643;78;20923;-82
2022/10/06 02:12:41;;;;;;;19.10;5.57;;;;;;;9.88;96.70;99457.49;2273490;78;21314;-81
2022/10/06 02:15:41;;;;;;;12.70;5.73;;;;;;;9.91;96.81;99460.59;2273221;78;20911;-81
2022/10/06 02:18:41;;;;;;;18.67;5.80;;;;;;;9.92;96.76;99457.14;2273306;78;20959;-81
2022/10/06 02:21:42;;;;;;;10.00;5.10;;;;;;;9.91;96.65;99456.69;2273395;78;20964;-81
2022/10/06 02:24:42;;;;;;;7.33;4.60;;;;;;;9.93;96.79;99458.91;2273458;78;20920;-81
2022/10/06 02:27:43;;;;;;;12.27;4.70;;;;;;;9.98;96.96;99458.59;2273073;77;21386;-79
2022/10/06 02:30:43;;;;;;;8.80;4.60;;;;;;;10.02;96.84;99460.42;2273305;78;20935;-79
2022/10/06 02:33:43;;;;;;;6.47;4.57;;;;;;;10.06;96.69;99461.38;2273359;78;20908;-81
2022/10/06 02:36:44;;;;;;;5.57;4.90;;;;;;;10.00;96.30;99456.02;2273336;78;20955;-81
2022/10/06 02:39:44;;;;;;;9.33;5.00;;;;;;;10.02;96.54;99458.24;2273458;78;20910;-80
2022/10/06 02:42:45;;;;;;;5.97;4.57;;;;;;;10.03;96.52;99458.70;2273491;78;21338;-80
2022/10/06 02:45:46;;;;;;;7.27;4.63;;;;;;;10.02;96.57;99460.85;2273098;78;20952;-79
2022/10/06 02:48:45;;;;;;;7.87;4.70;;;;;;;10.05;97.13;99456.59;2273470;78;20907;-81
2022/10/06 02:51:46;;;;;;;11.63;4.80;;;;;;;10.14;97.11;99463.33;2273143;78;20959;-81
2022/10/06 02:54:46;;;;;;;8.40;5.00;;;;;;;10.16;96.86;99459.45;2273394;78;21351;-81
2022/10/06 02:57:47;;;;;;;10.67;4.97;;;;;;;10.19;96.92;99464.73;2272191;78;21014;-80
2022/10/06 03:00:47;;;;;;;12.57;4.67;;;;;;;10.21;96.71;99457.86;2271559;78;20988;-80
2022/10/06 03:03:48;;;;;;;4.93;4.40;;;;;;;10.23;96.66;99461.80;2271749;78;21005;-81
2022/10/06 03:06:48;;;;;;;9.73;4.63;;;;;;;10.23;96.53;99461.38;2271613;78;20908;-81
2022/10/06 03:09:48;;;;;;;7.10;5.60;;;;;;;10.28;96.96;99466.28;2271785;78;21002;-80
2022/10/06 03:12:49;;;;;;;11.60;4.93;;;;;;;10.33;96.63;99465.08;2271963;78;21038;-81
2022/10/06 03:15:49;;;;;;;9.70;4.70;;;;;;;10.34;96.58;99465.12;2271615;78;21441;-81
2022/10/06 03:18:50;;;;;;;9.47;4.13;;;;;;;10.35;96.46;99469.91;2271434;78;21029;-80
2022/10/06 03:21:50;;;;;;;10.57;4.83;;;;;;;10.37;96.58;99465.61;2271905;78;20975;-81
2022/10/06 03:24:50;;;;;;;8.47;4.70;;;;;;;10.41;96.58;99466.17;2271696;78;20994;-83
2022/10/06 03:27:51;;;;;;;8.97;4.60;;;;;;;10.43;96.23;99470.58;2268659;78;21493;-81
2022/10/06 03:30:52;;;;;;;6.93;4.87;;;;;;;10.44;96.14;99470.16;2267713;78;20963;-80
2022/10/06 03:33:53;;;;;;;9.53;4.57;;;;;;;10.44;96.41;99469.73;2268153;78;21001;-80
2022/10/06 03:36:52;;;;;;;10.60;4.20;;;;;;;10.44;96.04;99477.98;2267139;78;20951;-82
2022/10/06 03:39:53;;;;;;;8.97;4.37;;;;;;;10.44;96.24;99487.12;2268215;78;20940;-83
2022/10/06 03:42:53;;;;;;;7.93;4.87;;;;;;;10.44;96.18;99484.51;2269107;78;20940;-82
2022/10/06 03:45:54;;;;;;;15.17;4.67;;;;;;;10.43;96.01;99480.13;2269021;78;21082;-81
2022/10/06 03:48:55;;;;;;;9.90;4.60;;;;;;;10.42;96.28;99485.78;2268124;78;20939;-81
2022/10/06 03:51:54;;;;;;;11.77;5.00;;;;;;;10.44;96.07;99492.34;2268781;78;20951;-81
2022/10/06 03:54:55;;;;;;;8.40;4.87;;;;;;;10.41;95.95;99490.54;2268589;78;21354;-80
2022/10/06 03:57:56;;;;;;;5.53;4.83;;;;;;;10.40;96.11;99494.00;2267623;78;21022;-80
2022/10/06 04:00:55;;;;;;;5.43;4.60;;;;;;;10.41;96.16;99498.37;2267988;78;21014;-80
2022/10/06 04:03:56;;;;;;;9.20;5.13;;;;;;;10.41;96.11;99501.41;2267496;78;21879;-81
2022/10/06 04:06:59;;;;;;;13.83;5.00;;;;;;;10.41;96.10;99502.70;2266239;78;21026;-83
2022/10/06 04:10:00;;;;;;;8.90;4.87;;;;;;;10.43;96.25;99510.15;2266825;78;21022;-80
2022/10/06 04:13:00;;;;;;;8.97;5.27;;;;;;;10.42;96.11;99509.69;2266913;78;20900;-82
2022/10/06 04:16:01;;;;;;;9.77;5.40;;;;;;;10.41;96.00;99513.15;2266466;78;20994;-81
2022/10/06 04:19:01;;;;;;;7.17;5.03;;;;;;;10.41;95.95;99514.45;2266380;78;20983;-82
2022/10/06 04:22:01;;;;;;;9.30;5.23;;;;;;;10.38;96.00;99513.92;2267373;78;21002;-81
2022/10/06 04:25:02;;;;;;;12.57;5.80;;;;;;;10.37;96.16;99516.50;2268640;78;20956;-80
2022/10/06 04:28:02;;;;;;;9.27;4.47;;;;;;;10.37;96.01;99525.63;2269979;78;21394;-81
2022/10/06 04:31:04;;;;;;;11.67;5.63;;;;;;;10.34;95.92;99523.83;2272420;78;21338;-81
2022/10/06 04:34:03;;;;;;;13.93;5.30;;;;;;;10.32;95.94;99525.95;2272002;78;20955;-81
2022/10/06 04:37:03;;;;;;;8.90;5.37;;;;;;;10.31;95.98;99520.27;2271233;78;21003;-80
2022/10/06 04:40:04;;;;;;;12.63;5.70;;;;;;;10.31;96.11;99518.97;2270536;78;20951;-80
2022/10/06 04:43:06;;;;;;;11.30;6.00;;;;;;;10.32;96.18;99519.42;2241532;78;21026;-82
2022/10/06 04:46:07;;;;;;;16.70;6.17;;;;;;;10.34;96.35;99521.22;2269628;78;20988;-81
2022/10/06 04:49:07;;;;;;;10.77;6.07;;;;;;;10.34;96.25;99525.56;2269671;78;21401;-81
2022/10/06 04:52:07;;;;;;;15.00;5.93;;;;;;;10.35;96.40;99523.41;2269535;78;20962;-82
2022/10/06 04:55:08;;;;;;;11.27;5.87;;;;;;;10.36;96.25;99531.70;2269981;78;20955;-81
2022/10/06 04:58:08;;;;;;;10.53;6.57;;;;;;;10.38;96.26;99538.72;2269545;78;21377;-82
2022/10/06 05:01:09;;;;;;;10.13;5.83;;;;;;;10.42;96.36;99544.92;2270177;78;20963;-80
2022/10/06 05:04:09;;;;;;;14.40;6.07;;;;;;;10.46;96.37;99535.02;2270022;78;21033;-81
2022/10/06 05:07:09;;;;;;;16.43;6.80;;;;;;;10.52;96.58;99530.81;2270081;78;20951;-80
2022/10/06 05:10:10;;;;;;;14.03;6.13;;;;;;;10.62;96.36;99536.25;2270530;78;20959;-78
2022/10/06 05:13:11;;;;;;;22.83;6.43;;;;;;;10.68;96.00;99541.18;2269245;78;21888;-82
2022/10/06 05:16:11;;;;;;;13.30;6.27;;;;;;;10.76;95.97;99543.96;2270472;78;20963;-80
2022/10/06 05:19:11;;;;;;;16.13;6.07;;;;;;;10.81;95.58;99548.44;2270008;78;21014;-80
2022/10/06 05:22:12;;;;;;;38.10;7.90;;;;;;;10.87;95.54;99545.50;2269603;78;20994;-79
2022/10/06 05:25:12;;;;;;;10.60;5.57;;;;;;;10.94;95.62;99548.28;2266306;78;20963;-79
2022/10/06 05:28:12;;;;;;;8.70;5.83;;;;;;;11.01;95.29;99555.40;2266677;78;21058;-77
2022/10/06 05:31:13;;;;;;;11.20;5.73;;;;;;;11.08;95.15;99559.02;2267951;78;21266;-80
2022/10/06 05:34:13;;;;;;;7.90;5.70;;;;;;;11.17;94.84;99559.21;2267218;78;20947;-80
2022/10/06 05:37:14;;;;;;;10.50;6.00;;;;;;;11.30;94.61;99569.52;2269828;78;21761;-79
2022/10/06 05:40:14;;;;;;;9.08;5.83;;;;;;;11.42;94.46;99567.16;2269213;78;20991;-79
2022/10/06 05:43:15;;;;;;;8.80;5.40;;;;;;;11.55;94.02;99565.66;2269976;78;20982;-80
2022/10/06 05:46:18;;;;;;;11.78;5.80;;;;;;;11.69;93.62;99576.84;2270349;78;21390;-80
2022/10/06 05:49:15;;;;;;;17.60;6.45;;;;;;;11.82;93.33;99576.67;2268656;78;20955;-80
2022/10/06 05:52:16;;;;;;;15.80;6.17;;;;;;;11.97;92.79;99578.27;2268242;78;21057;-80
2022/10/06 05:55:16;;;;;;;13.35;6.72;;;;;;;12.11;92.55;99578.08;2269814;78;21406;-79
2022/10/06 05:58:17;;;;;;;12.60;5.92;;;;;;;12.24;91.86;99592.72;2269549;78;21394;-80
2022/10/06 06:01:17;;;;;;;9.70;5.95;;;;;;;12.34;90.85;99599.87;2269800;78;20955;-80
2022/10/06 06:04:17;;;;;;;11.55;5.60;;;;;;;12.47;90.70;99597.91;2271220;78;20923;-79
2022/10/06 06:07:18;;;;;;;12.43;5.15;;;;;;;12.62;90.42;99609.93;2269588;78;20963;-80
2022/10/06 06:10:18;;;;;;;12.58;5.72;;;;;;;12.87;90.07;99608.56;2269892;78;20885;-80
2022/10/06 06:13:19;;;;;;;10.88;5.50;;;;;;;13.12;88.82;99613.75;2271090;78;20983;-80
2022/10/06 06:16:19;;;;;;;12.23;5.58;;;;;;;13.28;89.11;99618.38;2270585;78;20963;-80
2022/10/06 06:19:20;;;;;;;7.47;5.40;;;;;;;13.41;87.88;99620.73;2270174;78;21347;-78
2022/10/06 06:22:20;;;;;;;6.28;4.97;;;;;;;13.54;87.92;99621.77;2268600;78;20971;-80
2022/10/06 06:25:20;;;;;;;8.75;5.65;;;;;;;13.68;87.10;99631.56;2270129;78;20951;-80
2022/10/06 06:28:21;;;;;;;11.60;5.80;;;;;;;13.86;86.01;99624.76;2268656;78;21488;-77
2022/10/06 06:31:21;;;;;;;8.63;4.90;;;;;;;13.99;84.78;99632.81;2266045;78;21010;-80
2022/10/06 06:34:22;;;;;;;11.20;4.85;;;;;;;14.11;84.68;99623.30;2267112;78;20927;-80
2022/10/06 06:37:22;;;;;;;11.48;5.20;;;;;;;14.26;84.70;99637.46;2268828;78;21038;-79
2022/10/06 06:40:22;;;;;;;13.68;8.38;;;;;;;14.37;83.64;99640.63;2268859;78;21026;-79
2022/10/06 06:43:23;;;;;;;11.93;5.78;;;;;;;14.44;84.02;99640.73;2270025;78;21018;-79
2022/10/06 06:46:23;;;;;;;9.70;5.45;;;;;;;14.53;83.23;99647.80;2271594;78;20975;-79
2022/10/06 06:49:24;;;;;;;6.00;4.83;;;;;;;14.52;83.05;99660.06;2271628;78;20932;-78
2022/10/06 06:52:24;;;;;;;9.88;5.15;;;;;;;14.53;82.78;99660.94;2270003;78;20998;-79
2022/10/06 06:55:25;;;;;;;7.67;5.20;;;;;;;14.54;82.76;99664.89;2268948;78;21604;-78
2022/10/06 06:58:25;;;;;;;18.50;6.30;;;;;;;14.71;82.39;99670.30;2269068;78;20999;-79
2022/10/06 07:01:25;;;;;;;9.93;4.70;;;;;;;14.83;82.24;99673.49;2269272;78;21018;-78
2022/10/06 07:04:26;;;;;;;8.38;4.60;;;;;;;15.11;81.15;99671.51;2267727;78;20986;-78
2022/10/06 07:07:26;;;;;;;12.93;4.97;;;;;;;15.23;80.71;99671.59;2266918;78;21429;-78
2022/10/06 07:10:27;;;;;;;12.88;5.40;;;;;;;15.53;80.93;99675.26;2266765;78;21239;-79
2022/10/06 07:13:27;;;;;;;7.65;4.65;;;;;;;15.69;78.71;99678.47;2266721;78;20942;-78
2022/10/06 07:26:15;;;;;;;19.70;5.83;;;;;;;15.71;77.53;99688.58;2268536;78;21010;-78
2022/10/06 07:29:15;;;;;;;11.48;4.80;;;;;;;15.68;78.42;99700.41;2268504;78;21062;-79
2022/10/06 07:32:20;;;;;;;7.58;5.47;;;;;;;15.62;77.32;99692.48;2269651;78;21517;-78
2022/10/06 07:35:16;;;;;;;7.92;4.67;;;;;;;15.49;77.85;99700.67;2269159;78;21014;-78
2022/10/06 07:38:17;;;;;;;9.65;5.00;;;;;;;15.42;77.59;99708.52;2269626;78;21018;-79
2022/10/06 07:41:17;;;;;;;10.13;5.40;;;;;;;15.36;77.71;99711.12;2269799;78;21385;-79
2022/10/06 07:44:17;;;;;;;11.05;5.00;;;;;;;15.28;78.46;99714.58;2270793;78;21279;-78
2022/10/06 07:47:18;;;;;;;9.75;5.00;;;;;;;15.24;78.61;99717.17;2270734;78;20939;-78
2022/10/06 07:50:18;;;;;;;11.03;4.67;;;;;;;15.26;78.81;99721.58;2269814;78;20951;-78
2022/10/06 07:53:18;;;;;;;13.32;4.85;;;;;;;15.27;78.17;99727.72;2269163;78;20978;-77
2022/10/06 07:56:19;;;;;;;8.63;4.97;;;;;;;15.44;78.89;99726.52;2268146;78;20958;-77
2022/10/06 07:59:19;;;;;;;10.82;5.50;;;;;;;15.66;78.13;99732.41;2267848;78;21496;-79
2022/10/06 08:02:23;;;;;;;4.40;4.00;;;;;;;15.84;77.50;99732.50;2266076;78;20943;-77
2022/10/06 08:05:20;;;;;;;6.70;4.50;;;;;;;15.99;76.85;99733.01;2266235;78;20979;-79
2022/10/06 08:08:21;;;;;;;6.40;4.70;;;;;;;16.23;76.71;99737.48;2267406;78;20979;-80
2022/10/06 08:11:21;;;;;;;5.70;4.65;;;;;;;16.50;76.03;99740.23;2268501;78;20978;-80
2022/10/06 08:14:22;;;;;;;5.37;4.65;;;;;;;16.67;75.99;99746.00;2267549;78;21911;-79
2022/10/06 08:17:22;;;;;;;8.03;4.47;;;;;;;16.72;73.95;99752.16;2267886;78;21018;-80
2022/10/06 08:20:24;;;;;;;16.42;5.00;;;;;;;16.72;73.71;99760.07;2269588;78;21085;-78
2022/10/06 08:23:23;;;;;;;7.90;3.95;;;;;;;16.89;73.33;99758.33;2269907;78;20986;-79
2022/10/06 08:26:24;;;;;;;8.58;4.22;;;;;;;17.02;73.43;99754.83;2269031;78;20959;-80
2022/10/06 08:29:24;;;;;;;5.12;4.47;;;;;;;17.09;73.51;99764.50;2266463;78;22098;-78
2022/10/06 08:32:25;;;;;;;9.85;4.30;;;;;;;17.12;72.46;99767.13;2265866;78;20991;-81
2022/10/06 08:35:25;;;;;;;6.33;3.72;;;;;;;17.26;72.66;99769.77;2266636;78;21326;-80
2022/10/06 08:38:25;;;;;;;6.25;4.28;;;;;;;17.37;71.27;99773.75;2266230;78;21037;-78
2022/10/06 08:41:26;;;;;;;10.38;4.33;;;;;;;17.53;72.08;99770.22;2265751;78;21244;-79
2022/10/06 08:44:29;;;;;;;9.98;4.10;;;;;;;17.66;70.52;99765.38;2264570;78;22006;-79
2022/10/06 08:47:32;;;;;;;7.00;4.20;;;;;;;17.69;70.13;99767.14;2263372;79;20967;-81
2022/10/06 08:50:31;;;;;;;9.93;4.00;;;;;;;17.75;71.86;99773.28;2265148;78;20971;-80
2022/10/06 08:53:30;;;;;;;4.58;3.80;;;;;;;17.91;71.09;99767.95;2264634;78;21426;-79
2022/10/06 08:56:31;;;;;;;10.43;3.90;;;;;;;17.97;70.34;99762.22;2265077;78;20947;-80
2022/10/06 08:59:31;;;;;;;8.80;4.15;;;;;;;18.14;70.90;99755.55;2265182;78;21103;-80
2022/10/06 09:02:31;;;;;;;5.33;3.87;;;;;;;18.23;70.39;99754.22;2264491;79;20939;-77
2022/10/06 09:05:33;;;;;;;8.48;4.65;;;;;;;18.36;70.10;99763.84;2263006;78;21007;-76
2022/10/06 09:08:32;;;;;;;11.12;4.58;;;;;;;18.43;69.10;99762.05;2263647;78;21023;-79
2022/10/06 09:11:33;;;;;;;10.15;4.35;;;;;;;18.48;69.37;99765.98;2263912;78;20978;-79
2022/10/06 09:14:34;;;;;;;7.05;4.00;;;;;;;18.60;68.78;99756.66;2263819;78;20951;-79
2022/10/06 09:17:34;;;;;;;9.13;3.70;;;;;;;18.70;68.57;99762.36;2263385;78;21045;-80
2022/10/06 09:20:34;;;;;;;7.83;4.25;;;;;;;18.81;67.71;99764.93;2265855;78;21023;-79
2022/10/06 09:23:46;;;;;;;5.58;3.75;;;;;;;19.02;68.27;99769.62;2265285;78;22120;-79
2022/10/06 09:26:47;;;;;;;6.12;4.00;;;;;;;19.34;67.46;99774.69;2265665;78;21363;-78
2022/10/06 09:29:47;;;;;;;5.42;3.47;;;;;;;19.61;67.46;99773.58;2268028;78;21109;-80
2022/10/06 09:32:48;;;;;;;9.50;3.90;;;;;;;19.80;66.88;99776.03;2270553;78;20915;-80
2022/10/06 09:35:48;;;;;;;5.87;3.98;;;;;;;19.97;64.96;99780.73;2271428;78;21386;-80
2022/10/06 09:38:52;;;;;;;7.10;3.80;;;;;;;20.03;64.22;99792.14;2271216;78;21042;-79
2022/10/06 09:41:49;;;;;;;6.28;3.35;;;;;;;20.06;65.54;99795.66;2269686;78;20900;-78
2022/10/06 09:44:50;;;;;;;5.03;3.70;;;;;;;20.14;64.92;99792.02;2266686;78;20966;-79
2022/10/06 09:47:50;;;;;;;8.60;4.08;;;;;;;20.20;64.66;99799.90;2267039;78;20994;-79
2022/10/06 09:50:50;;;;;;;6.05;3.95;;;;;;;20.21;63.58;99806.08;2266721;78;20982;-78
2022/10/06 09:53:50;;;;;;;6.62;3.80;;;;;;;20.25;64.90;99815.75;2265697;78;20974;-79
2022/10/06 09:56:52;;;;;;;6.65;3.42;;;;;;;20.26;62.88;99824.13;2267689;78;20978;-79
2022/10/06 09:59:51;;;;;;;5.03;3.30;;;;;;;20.14;63.51;99830.45;2267751;78;21564;-80
2022/10/06 10:02:52;;;;;;;7.15;3.50;;;;;;;19.92;62.35;99837.72;2269007;78;21023;-79
2022/10/06 10:05:53;;;;;;;5.78;3.52;;;;;;;19.78;62.98;99830.81;2268614;78;20939;-80
2022/10/06 10:08:53;;;;;;;8.65;4.03;;;;;;;19.70;64.41;99842.35;2268085;78;21237;-78
2022/10/06 10:15:15;;;;;;;10.18;4.20;;;;;;;19.73;65.17;99843.65;2269541;78;20979;-80
2022/10/06 10:18:21;;;;;;;11.97;6.30;;;;;;;19.86;64.28;99836.91;2269872;78;20990;-80
2022/10/06 10:21:17;;;;;;;11.68;6.97;;;;;;;19.92;64.22;99830.22;2242094;78;20940;-80
2022/10/06 10:24:18;;;;;;;7.17;5.62;;;;;;;20.10;63.80;99841.11;2269062;78;20941;-81
2022/10/06 10:27:18;;;;;;;6.17;4.83;;;;;;;20.13;64.02;99837.98;2269467;78;20986;-80
2022/10/06 10:30:19;;;;;;;11.95;5.17;;;;;;;20.10;63.79;99822.55;2265771;78;21137;-79
2022/10/06 10:33:19;;;;;;;11.03;4.58;;;;;;;19.99;64.11;99830.17;2265325;78;21050;-82
2022/10/06 10:36:19;;;;;;;6.03;3.60;;;;;;;19.85;64.61;99821.91;2266111;78;20991;-78
2022/10/06 10:39:20;;;;;;;5.83;4.10;;;;;;;19.90;64.26;99828.91;2267280;78;20995;-80
2022/10/06 10:42:20;;;;;;;6.03;4.15;;;;;;;19.91;65.16;99825.81;2266117;78;21445;-81
2022/10/06 10:45:21;;;;;;;6.75;4.20;;;;;;;19.91;64.56;99825.81;2265829;78;21034;-81
2022/10/06 10:48:21;;;;;;;9.58;4.10;;;;;;;19.97;64.67;99828.44;2266134;78;20955;-80
2022/10/06 10:51:21;;;;;;;10.28;4.20;;;;;;;20.00;64.39;99829.73;2265595;78;20975;-80
2022/10/06 10:54:23;;;;;;;4.70;4.08;;;;;;;20.08;65.22;99831.84;2265821;78;21437;-80
2022/10/06 10:57:22;;;;;;;9.30;4.33;;;;;;;20.13;64.41;99836.65;2265804;78;20963;-80
2022/10/06 11:00:24;;;;;;;4.55;3.67;;;;;;;20.25;64.07;99839.16;2264698;78;21038;-79
2022/10/06 11:03:23;;;;;;;6.83;4.33;;;;;;;20.43;63.44;99838.55;2262495;78;20990;-81
2022/10/06 11:06:24;;;;;;;7.33;3.75;;;;;;;20.56;62.63;99846.33;2263552;78;21182;-82
2022/10/06 11:09:25;;;;;;;6.40;3.27;;;;;;;20.51;62.06;99855.23;2266101;78;20974;-80
2022/10/06 11:12:25;;;;;;;4.33;3.15;;;;;;;20.35;62.49;99851.41;2266249;78;20974;-82
2022/10/06 11:15:25;;;;;;;5.62;3.22;;;;;;;20.26;63.46;99854.17;2265843;78;21003;-80
2022/10/06 11:18:28;;;;;;;6.00;3.12;;;;;;;20.30;63.95;99861.64;2265583;78;20994;-80
2022/10/06 11:21:28;;;;;;;4.47;2.50;;;;;;;20.33;63.35;99854.53;2233175;78;20978;-80
2022/10/06 11:24:30;;;;;;;6.05;2.98;;;;;;;20.40;63.47;99857.14;2265299;78;20947;-81
2022/10/06 11:27:29;;;;;;;4.53;3.10;;;;;;;20.46;63.64;99856.63;2265067;78;21006;-80
2022/10/06 11:30:29;;;;;;;3.95;2.83;;;;;;;20.71;63.82;99869.13;2268122;78;21094;-79
2022/10/06 11:33:30;;;;;;;5.65;3.10;;;;;;;20.96;63.69;99858.64;2268531;78;21002;-80
2022/10/06 11:36:30;;;;;;;3.40;3.08;;;;;;;21.07;62.29;99855.83;2268918;78;21205;-79
2022/10/06 11:39:31;;;;;;;4.97;2.70;;;;;;;21.08;61.23;99863.34;2269770;78;20991;-79
2022/10/06 11:42:31;;;;;;;3.77;2.30;;;;;;;21.07;60.41;99866.45;2269891;78;21720;-79
2022/10/06 11:45:31;;;;;;;5.25;2.42;;;;;;;21.25;60.38;99866.66;2268669;78;20981;-79
2022/10/06 11:48:32;;;;;;;5.15;2.72;;;;;;;21.42;60.39;99861.96;2268602;78;20955;-80
2022/10/06 11:51:32;;;;;;;4.30;2.80;;;;;;;21.55;59.72;99863.52;2267755;78;21382;-80
2022/10/06 11:54:33;;;;;;;3.37;2.40;;;;;;;21.54;59.78;99872.39;2267686;78;20940;-79
2022/10/06 11:57:33;;;;;;;3.55;2.50;;;;;;;21.27;59.07;99870.17;2268377;78;20935;-80
2022/10/06 12:00:34;;;;;;;6.35;2.90;;;;;;;21.15;59.61;99867.66;2266116;78;21063;-81
2022/10/06 12:03:34;;;;;;;3.22;2.70;;;;;;;21.14;60.98;99872.09;2269075;78;20939;-81
2022/10/06 12:06:34;;;;;;;9.95;3.30;;;;;;;21.19;60.35;99878.22;2270059;78;21022;-81
2022/10/06 12:09:35;;;;;;;7.22;2.77;;;;;;;21.11;60.70;99871.27;2270679;78;20987;-82
2022/10/06 12:12:35;;;;;;;5.50;2.72;;;;;;;21.05;61.46;99876.21;2269299;78;21363;-82
2022/10/06 12:15:38;;;;;;;6.47;2.83;;;;;;;21.03;61.44;99870.50;2245434;78;20971;-83
2022/10/06 12:18:38;;;;;;;6.50;3.00;;;;;;;20.95;61.40;99878.57;2271328;77;21045;-83
2022/10/06 12:21:42;;;;;;;7.12;2.90;;;;;;;20.85;62.19;99885.78;2268809;78;20998;-83
2022/10/06 12:24:40;;;;;;;3.52;3.22;;;;;;;20.88;62.51;99879.10;2268291;78;20916;-81
2022/10/06 12:27:39;;;;;;;9.55;3.65;;;;;;;20.97;62.35;99879.42;2268988;78;20939;-83
2022/10/06 12:30:40;;;;;;;4.55;2.70;;;;;;;20.99;62.65;99881.16;2268277;78;21503;-81
2022/10/06 12:33:40;;;;;;;6.28;3.20;;;;;;;20.88;62.09;99883.08;2268454;78;20947;-81
2022/10/06 12:36:40;;;;;;;7.75;3.58;;;;;;;20.73;62.95;99884.58;2268299;78;20947;-82
2022/10/06 12:39:41;;;;;;;7.22;3.85;;;;;;;20.57;63.24;99882.56;2269246;78;20940;-81
2022/10/06 12:42:41;;;;;;;8.73;3.15;;;;;;;20.34;63.86;99886.78;2270114;78;20932;-82
2022/10/06 12:45:42;;;;;;;10.38;3.35;;;;;;;20.17;64.13;99890.06;2270480;78;20979;-83
2022/10/06 12:48:42;;;;;;;6.47;3.95;;;;;;;20.04;64.80;99900.36;2270153;78;20915;-82
2022/10/06 12:51:43;;;;;;;10.88;7.17;;;;;;;19.95;65.34;99902.64;2270280;78;20919;-82
2022/10/06 12:54:43;;;;;;;9.10;5.05;;;;;;;19.86;65.60;99900.05;2270144;78;20999;-80
2022/10/06 12:57:43;;;;;;;8.25;5.45;;;;;;;19.75;66.36;99910.30;2269409;78;21027;-82
2022/10/06 13:00:44;;;;;;;7.22;4.40;;;;;;;19.63;66.68;99905.55;2269989;78;20995;-82
2022/10/06 13:03:44;;;;;;;9.75;6.28;;;;;;;19.60;66.80;99912.19;2270386;78;20927;-81
2022/10/06 13:06:45;;;;;;;11.90;5.80;;;;;;;19.63;67.07;99919.23;2270731;78;20947;-81
2022/10/06 13:09:45;;;;;;;10.78;5.65;;;;;;;19.77;66.72;99915.15;2270885;78;20927;-82
2022/10/06 13:12:46;;;;;;;9.10;6.42;;;;;;;19.81;66.71;99919.08;2270362;78;21494;-83
2022/10/06 13:15:46;;;;;;;10.25;5.58;;;;;;;19.78;66.75;99931.03;2271358;78;21021;-82
2022/10/06 13:18:47;;;;;;;4.30;3.90;;;;;;;19.64;67.09;99935.55;2271278;78;21010;-83
2022/10/06 13:21:47;;;;;;;6.95;4.15;;;;;;;19.50;67.63;99942.24;2271131;78;20963;-83
2022/10/06 13:24:47;;;;;;;5.50;4.67;;;;;;;19.31;68.24;99955.16;2271201;78;21382;-82
2022/10/06 13:27:47;;;;;;;9.45;5.00;;;;;;;19.15;69.08;99949.52;2269667;78;20916;-80
2022/10/06 13:30:48;;;;;;;5.12;4.20;;;;;;;19.07;69.34;99949.12;2266383;78;21145;-83
2022/10/06 13:33:48;;;;;;;7.22;3.92;;;;;;;19.00;69.23;99956.62;2265471;78;20998;-81
2022/10/06 13:36:50;;;;;;;6.37;4.30;;;;;;;18.92;69.36;99956.21;2232552;78;21014;-81
2022/10/06 13:39:51;;;;;;;7.05;4.55;;;;;;;18.90;69.76;99955.34;2265055;78;21507;-81
2022/10/06 13:42:51;;;;;;;5.28;3.95;;;;;;;18.86;70.16;99955.80;2265950;78;21055;-81
2022/10/06 13:45:52;;;;;;;9.40;4.10;;;;;;;18.80;70.36;99955.82;2265768;78;20924;-81
2022/10/06 13:48:52;;;;;;;8.45;3.80;;;;;;;18.75;70.69;99953.19;2266432;78;21264;-81
2022/10/06 13:51:53;;;;;;;6.95;3.98;;;;;;;18.74;70.95;99959.81;2265904;78;21019;-81
2022/10/06 13:54:53;;;;;;;7.17;4.12;;;;;;;18.75;71.16;99957.16;2265990;78;21378;-80
2022/10/06 13:57:53;;;;;;;9.45;4.62;;;;;;;18.80;71.36;99962.87;2265677;78;21671;-81
2022/10/06 14:00:55;;;;;;;6.25;3.75;;;;;;;18.80;71.20;99970.81;2264763;78;21002;-81
2022/10/06 14:03:54;;;;;;;9.25;3.87;;;;;;;18.68;71.40;99964.68;2265566;78;21006;-81
2022/10/06 14:06:55;;;;;;;7.20;4.45;;;;;;;18.63;71.98;99970.42;2266791;78;21686;-82
2022/10/06 14:09:55;;;;;;;12.65;6.75;;;;;;;18.54;72.09;99969.09;2265947;78;22008;-80
2022/10/06 14:12:56;;;;;;;5.45;4.75;;;;;;;18.49;72.58;99977.48;2265035;78;20998;-82
2022/10/06 14:15:56;;;;;;;7.72;4.37;;;;;;;18.42;73.00;99977.94;2265171;78;21049;-82
2022/10/06 14:18:58;;;;;;;7.97;5.17;;;;;;;18.33;73.42;99981.91;2264929;78;21522;-81